createdAt,value
2023-01-23T00:00:46.162Z,98188.34
2023-01-23T00:03:13.688Z,98195.13
2023-01-23T00:05:42.543Z,98185.66
2023-01-23T00:08:10.101Z,98189.94
2023-01-23T00:10:39.272Z,98193.47
2023-01-23T00:13:07.364Z,98195.31
2023-01-23T00:15:35.010Z,98198.81
2023-01-23T00:18:02.514Z,98201.03
2023-01-23T00:20:30.035Z,98205.38
2023-01-23T00:22:58.879Z,98204.78
2023-01-23T00:25:26.483Z,98208.31
2023-01-23T00:27:54.422Z,98203.09
2023-01-23T00:30:21.955Z,98206.28
2023-01-23T00:32:49.525Z,98199.34
2023-01-23T00:35:17.097Z,98189.78
2023-01-23T00:37:44.684Z,98193.97
2023-01-23T00:40:14.319Z,98190.00
2023-01-23T00:42:41.841Z,98187.56
2023-01-23T00:45:09.752Z,98182.06
2023-01-23T00:47:37.279Z,98182.13
2023-01-23T00:50:05.123Z,98187.25
2023-01-23T00:52:32.628Z,98196.91
2023-01-23T00:55:00.195Z,98190.25
2023-01-23T00:57:29.104Z,98198.25
2023-01-23T00:59:56.595Z,98201.00
2023-01-23T01:02:24.249Z,98204.19
2023-01-23T01:04:51.832Z,98210.06
2023-01-23T01:07:19.389Z,98210.91
2023-01-23T01:09:47.190Z,98213.56
2023-01-23T01:12:15.099Z,98209.28
2023-01-23T01:14:44.114Z,98209.28
2023-01-23T01:17:11.690Z,98200.56
2023-01-23T01:19:39.240Z,98208.53
2023-01-23T01:22:06.750Z,98210.31
2023-01-23T01:24:34.293Z,98215.25
2023-01-23T01:27:01.831Z,98221.31
2023-01-23T01:29:29.423Z,98222.28
2023-01-23T01:31:58.333Z,98232.53
2023-01-23T01:34:25.899Z,98217.94
2023-01-23T01:36:53.554Z,98229.91
2023-01-23T01:39:21.058Z,98231.34
2023-01-23T01:41:48.680Z,98232.00
2023-01-23T01:44:18.739Z,98224.94
2023-01-23T01:46:46.722Z,98219.81
2023-01-23T01:49:17.073Z,98229.66
2023-01-23T01:51:47.370Z,98228.66
2023-01-23T01:54:19.741Z,98219.91
2023-01-23T01:56:50.605Z,98218.09
2023-01-23T01:59:19.869Z,98219.75
2023-01-23T02:01:48.984Z,98208.94
2023-01-23T02:04:18.449Z,98213.63
2023-01-23T02:06:46.215Z,98222.09
2023-01-23T02:09:18.516Z,98216.47
2023-01-23T02:11:46.387Z,98221.06
2023-01-23T02:14:14.588Z,98208.56
2023-01-23T02:16:46.429Z,98210.88
2023-01-23T02:19:25.797Z,98214.31
2023-01-23T02:21:57.146Z,98218.53
2023-01-23T02:24:30.050Z,98205.00
2023-01-23T02:26:58.883Z,98213.94
2023-01-23T02:29:26.894Z,98209.31
2023-01-23T02:31:56.247Z,98207.56
2023-01-23T02:34:25.997Z,98205.72
2023-01-23T02:36:53.585Z,98215.44
2023-01-23T02:39:21.325Z,98222.44
2023-01-23T02:41:51.097Z,98204.66
2023-01-23T02:44:26.104Z,98220.13
2023-01-23T02:46:53.775Z,98210.97
2023-01-23T02:49:22.000Z,98206.09
2023-01-23T02:51:49.572Z,98215.94
2023-01-23T02:54:17.412Z,98225.66
2023-01-23T02:56:45.012Z,98223.19
2023-01-23T02:59:30.142Z,98214.28
2023-01-23T03:02:00.296Z,98227.41
2023-01-23T03:04:27.869Z,98222.38
2023-01-23T03:06:55.369Z,98213.91
2023-01-23T03:09:23.202Z,98210.00
2023-01-23T03:11:50.986Z,98217.72
2023-01-23T03:14:22.557Z,98217.00
2023-01-23T03:16:52.658Z,98226.47
2023-01-23T03:19:23.126Z,98223.56
2023-01-23T03:21:50.682Z,98231.50
2023-01-23T03:24:18.736Z,98229.78
2023-01-23T03:26:47.631Z,98227.09
2023-01-23T03:29:33.888Z,98227.78
2023-01-23T03:32:01.542Z,98225.03
2023-01-23T03:34:31.391Z,98215.25
2023-01-23T03:37:00.268Z,98204.97
2023-01-23T03:39:45.719Z,98225.66
2023-01-23T03:42:13.262Z,98229.00
2023-01-23T03:44:40.805Z,98228.78
2023-01-23T03:47:08.367Z,98226.41
2023-01-23T03:49:37.649Z,98220.06
2023-01-23T03:52:05.501Z,98218.84
2023-01-23T03:54:33.121Z,98225.31
2023-01-23T03:57:00.681Z,98223.78
2023-01-23T03:59:28.191Z,98227.84
2023-01-23T04:01:57.971Z,98225.03
2023-01-23T04:04:25.517Z,98219.91
2023-01-23T04:06:54.340Z,98230.34
2023-01-23T04:09:26.094Z,98221.28
2023-01-23T04:11:53.928Z,98234.72
2023-01-23T04:14:21.614Z,98230.16
2023-01-23T04:16:49.494Z,98237.56
2023-01-23T04:19:19.623Z,98241.66
2023-01-23T04:21:48.607Z,98238.91
2023-01-23T04:24:17.659Z,98238.09
2023-01-23T04:26:45.714Z,98242.06
2023-01-23T04:29:13.681Z,98240.38
2023-01-23T04:31:41.733Z,98227.25
2023-01-23T04:34:09.325Z,98217.16
2023-01-23T04:36:36.842Z,98208.25
2023-01-23T04:39:04.801Z,98224.41
2023-01-23T04:41:34.278Z,98224.31
2023-01-23T04:44:20.222Z,98222.50
2023-01-23T04:46:49.739Z,98237.25
2023-01-23T04:49:18.756Z,98226.91
2023-01-23T04:51:48.001Z,98225.41
2023-01-23T04:54:15.683Z,98224.81
2023-01-23T04:56:45.380Z,98219.22
2023-01-23T04:59:13.087Z,98224.88
2023-01-23T05:01:40.774Z,98227.78
2023-01-23T05:04:08.311Z,98232.38
2023-01-23T05:06:35.859Z,98225.72
2023-01-23T05:09:03.429Z,98237.78
2023-01-23T05:11:31.401Z,98242.75
2023-01-23T05:14:00.317Z,98243.50
2023-01-23T05:16:27.828Z,98250.28
2023-01-23T05:18:55.384Z,98249.69
2023-01-23T05:21:22.953Z,98244.03
2023-01-23T05:23:50.464Z,98245.16
2023-01-23T05:26:17.991Z,98247.84
2023-01-23T05:28:45.709Z,98248.97
2023-01-23T05:31:14.679Z,98248.28
2023-01-23T05:33:42.415Z,98247.38
2023-01-23T05:36:10.038Z,98254.16
2023-01-23T05:38:37.580Z,98257.66
2023-01-23T05:41:05.983Z,98265.69
2023-01-23T05:43:34.598Z,98268.34
2023-01-23T05:46:04.316Z,98273.31
2023-01-23T05:48:33.372Z,98275.69
2023-01-23T05:51:03.426Z,98279.81
2023-01-23T05:53:31.065Z,98284.03
2023-01-23T05:55:58.617Z,98295.50
2023-01-23T05:58:26.161Z,98293.16
2023-01-23T06:00:53.727Z,98289.16
2023-01-23T06:03:21.240Z,98304.72
2023-01-23T06:05:50.153Z,98312.28
2023-01-23T06:08:17.667Z,98312.41
2023-01-23T06:10:45.192Z,98311.28
2023-01-23T06:13:12.743Z,98321.38
2023-01-23T06:15:40.311Z,98322.19
2023-01-23T06:18:07.948Z,98328.09
2023-01-23T06:20:35.550Z,98324.72
2023-01-23T06:23:04.448Z,98328.59
2023-01-23T06:25:32.121Z,98328.28
2023-01-23T06:27:59.644Z,98326.66
2023-01-23T06:30:27.323Z,98329.53
2023-01-23T06:32:55.598Z,98335.34
2023-01-23T06:35:23.370Z,98332.84
2023-01-23T06:37:51.108Z,98323.72
2023-01-23T06:40:20.549Z,98340.06
2023-01-23T06:42:48.307Z,98345.03
2023-01-23T06:45:15.860Z,98341.38
2023-01-23T06:47:43.415Z,98345.56
2023-01-23T06:50:11.665Z,98349.78
2023-01-23T06:52:39.231Z,98356.66
2023-01-23T06:55:07.768Z,98354.22
2023-01-23T06:57:37.032Z,98361.16
2023-01-23T07:00:05.296Z,98370.75
2023-01-23T07:02:32.861Z,98376.94
2023-01-23T07:05:00.430Z,98374.19
2023-01-23T07:07:27.981Z,98381.91
2023-01-23T07:09:55.521Z,98384.22
2023-01-23T07:12:23.026Z,98394.47
2023-01-23T07:14:51.897Z,98386.53
2023-01-23T07:17:19.411Z,98382.66
2023-01-23T07:19:46.914Z,98377.56
2023-01-23T07:22:18.055Z,98373.19
2023-01-23T07:24:45.621Z,98386.16
2023-01-23T07:27:13.183Z,98384.28
2023-01-23T07:29:40.840Z,98385.00
2023-01-23T07:32:11.191Z,98384.69
2023-01-23T07:34:39.002Z,98381.81
2023-01-23T07:37:06.701Z,98379.38
2023-01-23T07:39:34.243Z,98379.81
2023-01-23T07:42:01.792Z,98376.19
2023-01-23T07:44:29.484Z,98376.03
2023-01-23T07:46:57.586Z,98379.16
2023-01-23T07:49:26.523Z,98374.44
2023-01-23T07:51:54.048Z,98381.06
2023-01-23T07:54:21.555Z,98386.50
2023-01-23T07:56:50.247Z,98380.22
2023-01-23T07:59:18.159Z,98385.50
2023-01-23T08:01:45.734Z,98382.56
2023-01-23T08:04:13.318Z,98383.59
2023-01-23T08:06:42.247Z,98377.69
2023-01-23T08:09:09.813Z,98384.06
2023-01-23T08:11:37.395Z,98383.34
2023-01-23T08:14:04.923Z,98396.53
2023-01-23T08:16:32.589Z,98385.44
2023-01-23T08:19:00.161Z,98385.88
2023-01-23T08:21:27.676Z,98388.75
2023-01-23T08:23:56.564Z,98387.84
2023-01-23T08:26:24.085Z,98391.03
2023-01-23T08:28:51.605Z,98392.78
2023-01-23T08:31:19.264Z,98393.66
2023-01-23T08:33:46.832Z,98391.28
2023-01-23T08:36:14.603Z,98399.44
2023-01-23T08:38:42.687Z,98391.03
2023-01-23T08:41:12.867Z,98392.81
2023-01-23T08:43:41.432Z,98385.56
2023-01-23T08:46:10.307Z,98384.47
2023-01-23T08:48:38.154Z,98389.25
2023-01-23T08:51:07.666Z,98388.00
2023-01-23T08:53:35.931Z,98392.22
2023-01-23T08:56:05.057Z,98397.91
2023-01-23T08:58:34.208Z,98399.50
2023-01-23T09:01:02.008Z,98404.03
2023-01-23T09:03:29.610Z,98414.72
2023-01-23T09:06:01.760Z,98406.56
2023-01-23T09:08:29.323Z,98411.19
2023-01-23T09:11:01.048Z,98402.34
2023-01-23T09:13:28.587Z,98392.03
2023-01-23T09:15:57.600Z,98393.28
2023-01-23T09:18:25.701Z,98389.19
2023-01-23T09:20:53.491Z,98389.69
2023-01-23T09:23:21.076Z,98378.50
2023-01-23T09:25:48.650Z,98381.41
2023-01-23T09:28:16.265Z,98371.41
2023-01-23T09:30:44.000Z,98385.97
2023-01-23T09:33:12.905Z,98377.00
2023-01-23T09:35:40.384Z,98378.09
2023-01-23T09:38:08.462Z,98378.06
2023-01-23T09:40:39.220Z,98387.13
2023-01-23T09:43:14.352Z,98385.81
2023-01-23T09:45:43.259Z,98365.38
2023-01-23T09:48:18.669Z,98374.00
2023-01-23T09:50:54.910Z,98373.31
2023-01-23T09:53:26.585Z,98370.16
2023-01-23T09:55:58.634Z,98380.16
2023-01-23T09:58:29.727Z,98367.69
2023-01-23T10:00:57.322Z,98364.44
2023-01-23T10:03:29.959Z,98371.34
2023-01-23T10:06:07.892Z,98363.59
2023-01-23T10:08:43.862Z,98353.88
2023-01-23T10:11:18.475Z,98361.34
2023-01-23T10:13:58.945Z,98361.06
2023-01-23T10:16:49.568Z,98362.28
2023-01-23T10:19:33.240Z,98362.19
2023-01-23T10:22:03.316Z,98348.84
2023-01-23T10:24:45.418Z,98340.94
2023-01-23T10:27:19.580Z,98337.03
2023-01-23T10:29:50.458Z,98331.63
2023-01-23T10:32:26.719Z,98326.16
2023-01-23T10:34:58.935Z,98331.63
2023-01-23T10:37:42.225Z,98334.28
2023-01-23T10:40:14.181Z,98336.69
2023-01-23T10:42:41.832Z,98344.97
2023-01-23T10:45:16.778Z,98329.59
2023-01-23T10:47:49.992Z,98328.13
2023-01-23T10:50:35.956Z,98314.97
2023-01-23T10:53:07.523Z,98315.16
2023-01-23T10:55:35.163Z,98327.25
2023-01-23T10:58:03.359Z,98328.00
2023-01-23T11:00:36.790Z,98320.19
2023-01-23T11:03:26.461Z,98312.81
2023-01-23T11:05:56.721Z,98312.63
2023-01-23T11:08:26.787Z,98306.31
2023-01-23T11:10:54.764Z,98294.25
2023-01-23T11:13:30.357Z,98302.19
2023-01-23T11:15:58.300Z,98291.75
2023-01-23T11:18:34.109Z,98303.09
2023-01-23T11:21:03.308Z,98299.41
2023-01-23T11:23:31.136Z,98297.28
2023-01-23T11:25:58.659Z,98278.47
2023-01-23T11:28:29.577Z,98285.47
2023-01-23T11:31:12.501Z,98288.75
2023-01-23T11:33:44.357Z,98276.13
2023-01-23T11:36:40.585Z,98271.69
2023-01-23T11:39:16.909Z,98255.19
2023-01-23T11:41:45.928Z,98247.78
2023-01-23T11:44:18.390Z,98247.97
2023-01-23T11:46:57.945Z,98248.66
2023-01-23T11:49:46.329Z,98242.22
2023-01-23T11:52:28.753Z,98237.50
2023-01-23T11:55:10.013Z,98247.75
2023-01-23T11:57:46.967Z,98219.28
2023-01-23T12:00:26.028Z,98220.34
2023-01-23T12:03:16.697Z,98217.41
2023-01-23T12:05:56.859Z,98234.91
2023-01-23T12:08:38.946Z,98229.16
2023-01-23T12:11:13.782Z,98226.66
2023-01-23T12:13:58.222Z,98236.22
2023-01-23T12:16:32.096Z,98229.53
2023-01-23T12:19:14.382Z,98215.75
2023-01-23T12:21:49.068Z,98200.53
2023-01-23T12:24:32.204Z,98212.97
2023-01-23T12:27:02.735Z,98208.78
2023-01-23T12:29:49.668Z,98217.03
2023-01-23T12:32:32.239Z,98213.78
2023-01-23T12:35:09.503Z,98217.72
2023-01-23T12:37:51.413Z,98211.28
2023-01-23T12:40:24.334Z,98217.25
2023-01-23T12:42:56.431Z,98215.78
2023-01-23T12:45:25.956Z,98209.03
2023-01-23T12:47:59.779Z,98204.34
2023-01-23T12:50:36.244Z,98200.56
2023-01-23T12:53:08.466Z,98199.41
2023-01-23T12:55:39.443Z,98199.19
2023-01-23T12:58:09.294Z,98187.09
2023-01-23T13:00:50.638Z,98179.56
2023-01-23T13:03:46.278Z,98188.97
2023-01-23T13:06:27.994Z,98195.16
2023-01-23T13:09:12.117Z,98198.81
2023-01-23T13:11:53.775Z,98202.88
2023-01-23T13:14:31.565Z,98198.59
2023-01-23T13:17:04.241Z,98194.94
2023-01-23T13:19:51.658Z,98197.78
2023-01-23T13:22:31.466Z,98197.56
2023-01-23T13:25:12.772Z,98195.88
2023-01-23T13:27:47.395Z,98196.22
2023-01-23T13:30:43.711Z,98196.81
2023-01-23T13:33:55.240Z,98194.84
2023-01-23T13:36:34.749Z,98195.88
2023-01-23T13:39:24.068Z,98197.28
2023-01-23T13:41:54.304Z,98198.06
2023-01-23T13:44:35.772Z,98215.56
2023-01-23T14:20:19.186Z,98208.56
2023-01-23T14:22:46.764Z,98208.72
2023-01-23T14:25:16.093Z,98207.03
2023-01-23T14:27:52.872Z,98217.19
2023-01-23T14:30:26.474Z,98211.06
2023-01-23T14:32:56.164Z,98211.56
2023-01-23T14:35:25.712Z,98212.44
2023-01-23T14:37:55.236Z,98211.50
2023-01-23T14:40:28.272Z,98210.66
2023-01-23T14:43:00.167Z,98210.56
2023-01-23T14:45:32.146Z,98209.06
2023-01-23T14:48:06.939Z,98200.03
2023-01-23T14:50:35.280Z,98213.56
2023-01-23T14:53:05.070Z,98225.66
2023-01-23T14:55:37.411Z,98229.47
2023-01-23T14:58:05.534Z,98239.53
2023-01-23T15:00:33.211Z,98237.41
2023-01-23T15:03:04.287Z,98227.31
2023-01-23T15:05:32.834Z,98241.59
2023-01-23T15:08:03.220Z,98246.13
2023-01-23T15:10:32.259Z,98240.53
2023-01-23T15:13:02.382Z,98240.09
2023-01-23T15:15:31.379Z,98236.00
2023-01-23T15:18:01.266Z,98238.69
2023-01-23T15:20:36.262Z,98239.72
2023-01-23T15:23:28.041Z,98232.78
2023-01-23T15:26:13.691Z,98232.41
2023-01-23T15:28:43.010Z,98247.50
2023-01-23T15:31:28.592Z,98265.06
2023-01-23T15:33:57.648Z,98263.38
2023-01-23T15:36:31.025Z,98266.66
2023-01-23T15:38:59.620Z,98265.47
2023-01-23T15:41:39.998Z,98275.22
2023-01-23T15:44:14.040Z,98261.44
2023-01-23T15:46:43.005Z,98259.09
2023-01-23T15:49:23.526Z,98256.97
2023-01-23T15:51:56.464Z,98262.94
2023-01-23T15:54:26.790Z,98255.78
2023-01-23T15:57:06.695Z,98250.75
2023-01-23T15:59:36.032Z,98246.75
2023-01-23T16:02:03.668Z,98247.84
2023-01-23T16:04:31.203Z,98245.25
2023-01-23T16:07:02.473Z,98250.72
2023-01-23T16:09:31.478Z,98251.75
2023-01-23T16:12:00.287Z,98243.81
2023-01-23T16:14:28.011Z,98253.69
2023-01-23T16:16:58.281Z,98254.69
2023-01-23T16:19:32.166Z,98250.41
2023-01-23T16:22:05.289Z,98235.81
2023-01-23T16:24:37.905Z,98241.75
2023-01-23T16:27:06.942Z,98245.38
2023-01-23T16:29:35.375Z,98253.28
2023-01-23T16:32:03.857Z,98253.63
2023-01-23T16:34:31.464Z,98269.16
2023-01-23T16:37:01.761Z,98267.59
2023-01-23T16:39:32.555Z,98257.34
2023-01-23T16:42:00.285Z,98253.81
2023-01-23T16:44:28.284Z,98256.00
2023-01-23T16:46:56.143Z,98266.16
2023-01-23T16:49:24.446Z,98286.91
2023-01-23T16:51:57.215Z,98266.41
2023-01-23T16:54:27.040Z,98277.31
2023-01-23T16:56:56.931Z,98282.53
2023-01-23T16:59:30.967Z,98294.72
2023-01-23T17:01:59.642Z,98298.16
2023-01-23T17:04:28.565Z,98307.81
2023-01-23T17:06:56.116Z,98304.28
2023-01-23T17:09:24.416Z,98300.69
2023-01-23T17:11:54.758Z,98301.59
2023-01-23T17:14:24.303Z,98305.03
2023-01-23T17:16:52.576Z,98300.34
2023-01-23T17:19:30.957Z,98305.28
2023-01-23T17:21:59.599Z,98303.59
2023-01-23T17:24:27.152Z,98303.59
2023-01-23T17:26:56.236Z,98290.88
2023-01-23T17:29:24.682Z,98312.16
2023-01-23T17:31:53.214Z,98314.94
2023-01-23T17:34:22.898Z,98308.91
2023-01-23T17:36:54.734Z,98297.25
2023-01-23T17:39:22.670Z,98314.13
2023-01-23T17:41:51.315Z,98313.38
2023-01-23T17:44:20.581Z,98315.28
2023-01-23T17:46:48.330Z,98326.44
2023-01-23T17:49:28.408Z,98318.75
2023-01-23T17:51:57.255Z,98313.53
2023-01-23T17:54:26.257Z,98318.75
2023-01-23T17:56:53.840Z,98314.28
2023-01-23T17:59:22.756Z,98316.78
2023-01-23T18:01:50.440Z,98311.75
2023-01-23T18:04:19.737Z,98314.47
2023-01-23T18:06:47.757Z,98321.25
2023-01-23T18:09:15.676Z,98334.25
2023-01-23T18:11:49.715Z,98331.84
2023-01-23T18:14:30.946Z,98339.47
2023-01-23T18:16:58.612Z,98341.31
2023-01-23T18:19:27.357Z,98342.06
2023-01-23T18:21:56.559Z,98329.34
2023-01-23T18:24:27.308Z,98348.19
2023-01-23T18:27:00.147Z,98346.47
2023-01-23T18:29:42.337Z,98361.22
2023-01-23T18:32:38.682Z,98352.59
2023-01-23T18:35:16.294Z,98354.44
2023-01-23T18:37:49.883Z,98354.50
2023-01-23T18:40:22.663Z,98354.91
2023-01-23T18:42:57.560Z,98362.31
2023-01-23T18:45:28.064Z,98371.91
2023-01-23T18:47:57.253Z,98369.28
2023-01-23T18:50:26.995Z,98381.47
2023-01-23T18:53:11.781Z,98385.75
2023-01-23T18:55:43.186Z,98382.31
2023-01-23T18:58:23.339Z,98383.91
2023-01-23T19:00:59.448Z,98386.50
2023-01-23T19:03:31.864Z,98376.09
2023-01-23T19:05:59.987Z,98372.81
2023-01-23T19:08:30.770Z,98376.84
2023-01-23T19:11:01.106Z,98375.16
2023-01-23T19:13:30.893Z,98385.50
2023-01-23T19:16:05.945Z,98380.28
2023-01-23T19:18:44.272Z,98379.44
2023-01-23T19:21:18.095Z,98379.28
2023-01-23T19:23:50.177Z,98388.75
2023-01-23T19:26:18.677Z,98381.97
2023-01-23T19:28:46.733Z,98391.38
2023-01-23T19:31:21.231Z,98401.72
2023-01-23T19:33:49.140Z,98401.47
2023-01-23T19:36:16.950Z,98408.50
2023-01-23T19:38:44.719Z,98406.00
2023-01-23T19:41:20.783Z,98406.00
2023-01-23T19:43:49.460Z,98381.13
2023-01-23T19:46:18.863Z,98405.00
2023-01-23T19:48:46.612Z,98408.50
2023-01-23T19:51:16.500Z,98412.81
2023-01-23T19:53:44.335Z,98406.81
2023-01-23T19:56:18.025Z,98398.41
2023-01-23T19:58:46.090Z,98405.13
2023-01-23T20:01:23.140Z,98406.75
2023-01-23T20:03:50.970Z,98407.59
2023-01-23T20:06:18.508Z,98410.19
2023-01-23T20:08:46.031Z,98402.28
2023-01-23T20:11:14.388Z,98397.50
2023-01-23T20:13:42.114Z,98403.22
2023-01-23T20:16:11.359Z,98397.31
2023-01-23T20:18:41.534Z,98416.91
2023-01-23T20:21:09.463Z,98403.97
2023-01-23T20:23:37.018Z,98406.50
2023-01-23T20:26:04.709Z,98402.97
2023-01-23T20:28:32.457Z,98404.66
2023-01-23T20:31:04.882Z,98398.69
2023-01-23T20:33:32.785Z,98391.63
2023-01-23T20:36:01.815Z,98398.69
2023-01-23T20:38:29.625Z,98396.84
2023-01-23T20:41:03.513Z,98408.00
2023-01-23T20:43:31.064Z,98402.97
2023-01-23T20:45:58.643Z,98394.13
2023-01-23T20:48:26.346Z,98408.00
2023-01-23T20:50:55.024Z,98397.59
2023-01-23T20:53:34.102Z,98401.94
2023-01-23T20:56:03.118Z,98394.91
2023-01-23T20:58:48.883Z,98394.91
2023-01-23T21:01:16.930Z,98383.16
2023-01-23T21:03:45.039Z,98390.53
2023-01-23T21:06:15.195Z,98404.47
2023-01-23T21:08:44.693Z,98393.97
2023-01-23T21:11:14.155Z,98395.75
2023-01-23T21:13:42.481Z,98400.09
2023-01-23T21:16:13.775Z,98377.94
2023-01-23T21:18:44.745Z,98388.88
2023-01-23T21:21:13.973Z,98386.25
2023-01-23T21:23:41.788Z,98389.69
2023-01-23T21:26:10.861Z,98391.47
2023-01-23T21:28:38.940Z,98412.13
2023-01-23T21:31:10.880Z,98405.91
2023-01-23T21:33:40.455Z,98406.56
2023-01-23T21:36:09.048Z,98405.81
2023-01-23T21:38:36.954Z,98403.22
2023-01-23T21:41:04.627Z,98404.16
2023-01-23T21:43:34.014Z,98401.44
2023-01-23T21:46:02.209Z,98415.25
2023-01-23T21:48:29.828Z,98408.19
2023-01-23T21:51:04.945Z,98409.00
2023-01-23T21:53:32.503Z,98412.53
2023-01-23T21:56:00.300Z,98423.06
2023-01-23T21:58:27.830Z,98424.88
2023-01-23T22:01:18.864Z,98429.44
2023-01-23T22:03:46.648Z,98439.56
2023-01-23T22:06:14.304Z,98425.22
2023-01-23T22:08:41.934Z,98434.47
2023-01-23T22:11:10.391Z,98440.59
2023-01-23T22:13:37.979Z,98442.44
2023-01-23T22:16:07.699Z,98437.13
2023-01-23T22:18:35.532Z,98441.34
2023-01-23T22:21:04.871Z,98432.19
2023-01-23T22:23:32.969Z,98438.94
2023-01-23T22:26:01.956Z,98438.06
2023-01-23T22:28:29.708Z,98445.97
2023-01-23T22:30:57.799Z,98438.34
2023-01-23T22:33:39.496Z,98434.06
2023-01-23T22:36:09.655Z,98420.09
2023-01-23T22:38:37.204Z,98433.13
2023-01-23T22:41:06.498Z,98434.22
2023-01-23T22:43:35.119Z,98433.31
2023-01-23T22:46:07.371Z,98440.19
2023-01-23T22:48:36.830Z,98436.81
2023-01-23T22:51:05.115Z,98436.66
2023-01-23T22:53:32.905Z,98448.16
2023-01-23T22:56:04.535Z,98448.16
2023-01-23T22:58:32.023Z,98458.59
2023-01-23T23:00:59.836Z,98460.44
2023-01-23T23:03:27.659Z,98460.44
2023-01-23T23:06:00.371Z,98453.03
2023-01-23T23:08:28.473Z,98471.75
2023-01-23T23:11:02.833Z,98474.28
2023-01-23T23:13:31.460Z,98470.84
2023-01-23T23:15:59.524Z,98470.00
2023-01-23T23:18:27.002Z,98470.75
2023-01-23T23:20:54.561Z,98474.19
2023-01-23T23:23:23.521Z,98473.34
2023-01-23T23:25:54.639Z,98476.81
2023-01-23T23:28:22.213Z,98474.19
2023-01-23T23:30:49.758Z,98473.44
2023-01-23T23:33:17.548Z,98482.00
2023-01-23T23:35:45.556Z,98478.47
2023-01-23T23:38:13.364Z,98479.47
2023-01-23T23:40:42.584Z,98483.59
2023-01-23T23:43:11.142Z,98478.47
2023-01-23T23:45:38.760Z,98475.03
2023-01-23T23:48:06.708Z,98465.47
2023-01-23T23:50:34.817Z,98465.31
2023-01-23T23:53:02.332Z,98462.88
2023-01-23T23:55:29.848Z,98468.06
2023-01-23T23:58:00.375Z,98473.00
